Time;durP1;ratioP1;P1;durP2;ratioP2;P2;SDS_P1;SDS_P2;PMS_P1;PMS_P2;Temp;Humidity;BMP_temperature;BMP_pressure;BME280_temperature;BME280_humidity;BME280_pressure;Samples;Min_cycle;Max_cycle;Signal;HPM_P1;HPM_P2
2023/07/19 00:00:55;;;;;;;10.00;3.78;;;23.70;81.00;;;22.64;69.11;99778.41;10449678;27;96796;-87
2023/07/19 00:06:02;;;;;;;4.70;3.08;;;23.50;81.20;;;22.56;68.69;99769.94;10446822;27;96518;-87
2023/07/19 00:11:06;;;;;;;6.97;3.10;;;23.40;81.40;;;22.57;67.80;99750.72;10428575;27;97207;-86
2023/07/19 00:16:09;;;;;;;6.10;2.67;;;23.40;81.30;;;22.67;66.66;99729.16;10444667;27;98640;-86
2023/07/19 00:21:14;;;;;;;5.90;2.50;;;23.40;80.70;;;22.80;66.14;99713.53;10475419;27;96565;-87
2023/07/19 00:26:18;;;;;;;6.00;2.60;;;23.50;80.20;;;22.85;65.60;99692.72;10448364;27;96563;-87
2023/07/19 00:31:22;;;;;;;5.97;2.58;;;23.60;79.90;;;22.91;65.07;99705.25;10418752;27;96640;-87
2023/07/19 00:36:25;;;;;;;9.30;2.72;;;23.60;79.60;;;22.91;65.04;99690.84;10447613;27;96800;-86
2023/07/19 00:41:29;;;;;;;6.40;2.60;;;23.70;79.60;;;22.93;65.08;99688.72;10470704;27;97640;-86
2023/07/19 00:46:34;;;;;;;6.32;1.92;;;23.70;79.60;;;22.88;64.99;99684.09;10434880;27;98147;-86
2023/07/19 00:51:38;;;;;;;5.05;2.33;;;23.70;79.50;;;22.91;65.26;99686.28;10465894;27;96774;-87
2023/07/19 00:56:43;;;;;;;7.82;2.42;;;23.70;79.50;;;22.93;65.05;99688.72;10439076;27;97257;-87
2023/07/19 01:01:49;;;;;;;6.75;2.58;;;23.60;79.60;;;22.91;65.08;99670.03;10407179;27;96942;-86
2023/07/19 01:06:53;;;;;;;4.63;2.22;;;23.70;80.20;;;22.88;65.82;99662.41;10448646;27;98645;-87
2023/07/19 01:11:56;;;;;;;3.85;2.40;;;23.60;80.00;;;22.80;66.39;99665.59;10462209;27;98276;-86
2023/07/19 01:17:00;;;;;;;5.00;2.60;;;23.60;80.50;;;22.74;66.70;99663.94;10459874;27;97331;-87
2023/07/19 01:22:06;;;;;;;5.28;2.22;;;23.50;80.70;;;22.72;66.85;99663.34;10429538;27;96788;-86
2023/07/19 01:27:09;;;;;;;6.05;2.95;;;23.50;80.80;;;22.71;67.18;99654.41;10429760;27;96656;-86
2023/07/19 01:32:25;;;;;;;6.05;2.85;;;23.50;80.90;;;22.68;67.35;99668.50;10441690;27;97075;-86
2023/07/19 01:37:29;;;;;;;4.70;2.60;;;23.50;81.00;;;22.63;67.37;99681.19;10422824;27;96639;-87
2023/07/19 01:42:32;;;;;;;8.43;2.90;;;23.50;81.30;;;22.54;67.53;99667.28;10429540;27;97380;-86
2023/07/19 01:47:37;;;;;;;5.50;2.60;;;23.40;81.40;;;22.49;68.27;99679.97;10418730;27;97872;-86
2023/07/19 01:52:41;;;;;;;5.13;2.45;;;23.40;81.60;;;22.36;68.88;99665.78;10434080;27;96843;-86
2023/07/19 01:57:44;;;;;;;9.32;2.85;;;23.30;82.10;;;22.27;69.18;99661.94;10444605;27;96719;-86
2023/07/19 02:02:48;;;;;;;8.68;2.15;;;23.30;82.40;;;22.16;69.87;99666.44;10430945;27;97505;-86
2023/07/19 02:07:52;;;;;;;6.22;3.08;;;23.10;82.90;;;22.00;70.53;99675.44;10448013;27;98105;-86
2023/07/19 02:12:56;;;;;;;7.50;3.42;;;23.00;83.50;;;21.95;71.10;99674.56;10430626;27;96710;-86
2023/07/19 02:17:59;;;;;;;6.70;2.67;;;22.90;84.00;;;21.85;71.23;99668.00;10440425;27;96560;-87
2023/07/19 02:23:03;;;;;;;5.57;2.50;;;22.80;84.20;;;21.75;72.24;99675.19;10441694;27;96598;-86
2023/07/19 02:28:07;;;;;;;5.00;2.95;;;22.70;84.70;;;21.59;72.47;99693.94;10465814;27;96547;-87
2023/07/19 02:33:14;;;;;;;8.10;3.17;;;22.50;85.10;;;21.49;72.69;99699.22;10436454;27;96480;-86
2023/07/19 02:38:18;;;;;;;8.13;3.25;;;22.40;85.40;;;21.41;74.04;99715.03;10424566;27;96551;-88
2023/07/19 02:43:21;;;;;;;7.50;3.58;;;22.40;85.80;;;21.36;74.32;99696.91;10423004;27;98276;-88
2023/07/19 02:48:25;;;;;;;5.45;2.92;;;22.30;86.20;;;21.28;75.24;99686.47;10414189;27;96616;-88
2023/07/19 02:53:29;;;;;;;5.43;3.17;;;22.30;86.60;;;21.16;75.44;99677.66;10410161;27;96620;-88
2023/07/19 02:58:32;;;;;;;7.55;3.42;;;22.20;87.10;;;21.03;76.09;99687.75;10439688;27;96578;-88
2023/07/19 03:03:36;;;;;;;6.75;3.25;;;22.00;87.90;;;20.96;77.30;99703.34;10424874;27;96994;-89
2023/07/19 03:08:40;;;;;;;7.50;3.25;;;21.90;88.50;;;20.91;78.10;99705.97;10461375;27;96566;-88
2023/07/19 03:13:43;;;;;;;12.52;3.88;;;21.80;89.00;;;20.82;78.57;99702.06;10425477;27;96985;-89
2023/07/19 03:18:47;;;;;;;5.68;4.00;;;21.80;89.50;;;20.82;78.92;99708.28;10441984;27;97444;-88
2023/07/19 03:23:51;;;;;;;4.78;2.97;;;21.70;90.00;;;20.80;79.91;99710.38;10434033;27;97940;-88
2023/07/19 03:28:55;;;;;;;6.32;3.33;;;21.70;90.10;;;20.80;80.14;99704.97;10435894;27;96731;-88
2023/07/19 03:33:59;;;;;;;6.63;3.78;;;21.70;90.30;;;20.78;80.46;99709.00;10440474;27;97002;-88
2023/07/19 03:39:03;;;;;;;7.10;2.97;;;21.70;90.40;;;20.78;80.54;99722.50;10419801;27;96585;-86
2023/07/19 03:44:07;;;;;;;5.57;3.10;;;21.70;90.60;;;20.75;81.15;99723.81;10448191;27;96475;-86
2023/07/19 03:49:11;;;;;;;7.45;3.33;;;21.70;90.70;;;20.67;80.79;99718.00;10449114;27;96699;-86
2023/07/19 03:54:14;;;;;;;6.57;3.58;;;21.60;90.80;;;20.61;81.75;99716.28;10433968;27;98314;-85
2023/07/19 03:59:18;;;;;;;5.65;3.08;;;21.50;91.10;;;20.54;82.37;99725.38;10420102;27;98066;-86
2023/07/19 04:04:22;;;;;;;6.63;3.67;;;21.40;91.30;;;20.52;82.32;99730.19;10425177;27;97899;-86
2023/07/19 04:09:25;;;;;;;8.70;4.05;;;21.40;91.50;;;20.49;83.10;99719.88;10457006;27;96648;-86
2023/07/19 04:14:29;;;;;;;7.85;4.07;;;21.40;91.70;;;20.52;83.79;99722.09;10417411;27;96760;-86
2023/07/19 04:19:32;;;;;;;6.45;3.35;;;21.50;92.00;;;20.60;84.13;99730.84;10434519;27;98478;-87
2023/07/19 04:24:36;;;;;;;6.32;3.40;;;21.50;92.10;;;20.66;84.11;99736.09;10445582;27;97335;-87
2023/07/19 04:29:40;;;;;;;6.20;3.28;;;21.60;92.20;;;20.80;84.49;99733.88;10418228;27;96823;-87
2023/07/19 04:34:44;;;;;;;7.85;4.10;;;21.70;92.30;;;20.89;84.81;99735.09;10448938;27;98246;-88
2023/07/19 04:39:48;;;;;;;7.15;3.67;;;21.80;92.40;;;20.96;84.54;99724.94;10421913;27;98223;-86
2023/07/19 04:44:51;;;;;;;6.28;3.60;;;21.80;92.50;;;21.07;84.65;99728.63;10433615;27;96755;-85
2023/07/19 04:49:55;;;;;;;9.40;4.30;;;21.90;92.60;;;21.22;84.64;99728.00;10461351;27;96863;-86
2023/07/19 04:54:58;;;;;;;5.25;3.58;;;22.10;92.60;;;21.35;84.45;99727.66;10439460;27;97216;-86
2023/07/19 05:00:05;;;;;;;6.40;4.22;;;22.20;92.60;;;21.46;83.62;99724.03;10462372;27;96593;-85
2023/07/19 05:05:09;;;;;;;7.50;4.55;;;22.40;92.40;;;21.59;82.96;99729.09;10444946;27;97219;-85
2023/07/19 05:10:13;;;;;;;8.45;4.97;;;22.50;92.40;;;21.70;82.36;99718.38;10378740;28;99074;-85
2023/07/19 05:15:17;;;;;;;9.10;4.13;;;22.60;92.40;;;21.85;82.26;99705.06;10338053;28;96490;-85
2023/07/19 05:20:20;;;;;;;11.90;4.28;;;22.80;92.40;;;22.04;81.31;99703.63;10364849;28;96439;-87
2023/07/19 05:25:24;;;;;;;9.63;3.97;;;23.00;92.20;;;22.20;80.44;99704.63;10357768;28;96752;-85
2023/07/19 05:30:28;;;;;;;9.55;4.50;;;23.10;92.00;;;22.37;79.38;99718.88;10328904;28;97489;-86
2023/07/19 05:35:31;;;;;;;9.82;3.67;;;23.30;91.80;;;22.44;78.47;99710.53;10344192;28;98434;-85
2023/07/19 05:40:35;;;;;;;8.52;3.63;;;23.40;91.60;;;22.66;78.58;99716.66;10344950;28;96490;-85
2023/07/19 05:45:38;;;;;;;7.32;3.53;;;23.60;91.60;;;22.76;77.88;99699.69;10359317;28;97695;-85
2023/07/19 05:50:42;;;;;;;6.07;4.03;;;23.80;91.30;;;22.98;76.62;99723.16;10389096;28;96547;-85
2023/07/19 05:55:46;;;;;;;6.97;4.07;;;24.00;91.00;;;23.06;75.55;99725.38;10352521;28;97193;-85
2023/07/19 06:00:50;;;;;;;10.93;4.00;;;24.10;90.70;;;23.13;74.18;99726.78;10342353;28;96563;-85
2023/07/19 06:05:53;;;;;;;7.10;3.78;;;24.10;90.40;;;23.14;73.78;99727.59;10346396;28;97344;-85
2023/07/19 06:10:57;;;;;;;8.80;3.92;;;24.20;90.30;;;23.23;74.02;99721.44;10419464;28;96527;-85
2023/07/19 06:16:00;;;;;;;10.68;4.25;;;24.20;90.20;;;23.35;73.95;99725.81;10450957;27;96611;-85
2023/07/19 06:21:04;;;;;;;6.47;4.13;;;24.30;90.40;;;23.48;73.76;99738.91;10446573;27;98255;-85
2023/07/19 06:26:08;;;;;;;10.13;3.75;;;24.40;89.90;;;23.57;72.53;99725.63;10461954;27;96542;-84
2023/07/19 06:31:11;;;;;;;7.60;3.80;;;24.60;89.40;;;23.66;71.98;99718.66;10443466;27;96556;-85
2023/07/19 06:36:15;;;;;;;9.48;3.65;;;24.60;89.00;;;23.80;70.52;99716.28;10422386;27;96876;-85
2023/07/19 06:41:18;;;;;;;9.70;3.90;;;24.80;88.30;;;23.92;70.91;99727.69;10455001;27;98202;-85
2023/07/19 06:46:23;;;;;;;12.30;4.05;;;24.90;88.30;;;24.05;69.80;99729.94;10428889;27;96555;-85
2023/07/19 06:51:27;;;;;;;9.57;3.72;;;25.10;87.60;;;24.09;70.12;99722.88;10446633;27;96585;-84
2023/07/19 06:56:30;;;;;;;12.93;3.53;;;25.10;87.60;;;24.16;69.86;99723.41;10472679;27;96741;-85
2023/07/19 07:01:35;;;;;;;6.55;3.75;;;25.20;87.20;;;24.18;69.35;99704.16;10451058;27;96877;-85
2023/07/19 07:06:39;;;;;;;11.50;3.85;;;25.20;86.90;;;24.20;68.70;99694.66;10444729;27;96551;-85
2023/07/19 07:11:43;;;;;;;11.57;4.15;;;25.20;86.50;;;24.32;68.20;99704.44;10431394;27;97867;-85
2023/07/19 07:16:46;;;;;;;8.50;3.88;;;25.30;86.60;;;24.39;67.74;99699.59;10409880;27;96779;-85
2023/07/19 07:21:50;;;;;;;14.80;4.50;;;25.40;85.70;;;24.48;67.50;99704.22;10430827;27;96512;-85
2023/07/19 07:26:53;;;;;;;9.05;3.85;;;25.50;85.80;;;24.59;67.75;99698.75;10425545;27;97633;-85
2023/07/19 07:31:57;;;;;;;6.80;3.70;;;25.60;85.60;;;24.66;66.76;99696.63;10462643;27;96585;-85
2023/07/19 07:37:00;;;;;;;11.20;3.70;;;25.70;84.90;;;24.72;65.90;99706.38;10406438;27;96638;-85
2023/07/19 07:42:05;;;;;;;11.52;3.95;;;25.80;84.50;;;24.77;66.09;99707.19;10469396;27;96472;-85
2023/07/19 07:47:10;;;;;;;9.60;3.38;;;25.80;84.80;;;24.93;65.95;99704.44;10455530;27;97448;-85
2023/07/19 07:52:15;;;;;;;5.80;4.00;;;26.00;84.90;;;25.04;65.13;99701.44;10447561;27;97407;-85
2023/07/19 07:57:19;;;;;;;9.77;3.50;;;26.10;84.20;;;25.12;64.87;99707.44;10445060;27;96726;-85
2023/07/19 08:02:23;;;;;;;11.20;3.40;;;26.20;84.50;;;25.25;65.03;99713.13;10409649;27;97138;-85
2023/07/19 08:07:28;;;;;;;8.52;3.47;;;26.30;83.60;;;25.44;64.91;99715.25;10464157;27;96495;-85
2023/07/19 08:12:31;;;;;;;10.95;4.00;;;26.50;83.50;;;25.62;63.90;99701.81;10458432;27;96743;-85
2023/07/19 08:17:35;;;;;;;7.75;3.80;;;26.60;82.80;;;25.71;64.11;99698.50;10427913;27;96531;-85
2023/07/19 08:22:38;;;;;;;8.60;3.63;;;26.70;82.30;;;25.84;63.09;99692.47;10403122;28;96679;-85
2023/07/19 08:27:42;;;;;;;5.43;3.75;;;26.90;82.40;;;25.91;63.58;99687.56;10422119;28;96409;-85
2023/07/19 08:32:47;;;;;;;10.20;3.88;;;26.90;82.30;;;25.96;63.72;99673.09;10444018;27;98244;-85
2023/07/19 08:37:51;;;;;;;6.25;3.40;;;27.00;82.20;;;26.05;62.63;99680.38;10430394;27;96988;-85
2023/07/19 08:42:55;;;;;;;8.77;3.40;;;27.10;81.90;;;26.19;62.60;99669.66;10453410;27;97308;-86
2023/07/19 08:47:58;;;;;;;9.65;4.15;;;27.20;81.90;;;26.32;61.83;99677.19;10444614;27;97629;-86
2023/07/19 08:53:02;;;;;;;6.85;3.50;;;27.30;81.50;;;26.38;61.63;99670.59;10443710;27;96534;-86
2023/07/19 08:58:05;;;;;;;13.60;4.13;;;27.40;81.10;;;26.41;61.74;99680.97;10449930;27;96613;-86
2023/07/19 09:03:09;;;;;;;8.45;3.42;;;27.40;81.00;;;26.48;62.25;99685.28;10452273;27;96534;-86
2023/07/19 09:08:14;;;;;;;6.32;3.65;;;27.50;81.20;;;26.48;61.27;99683.34;10460437;27;96726;-87
2023/07/19 09:13:19;;;;;;;11.70;4.05;;;27.50;80.90;;;26.50;61.70;99683.88;10412302;27;96520;-87
2023/07/19 09:18:28;;;;;;;9.23;3.70;;;27.50;81.40;;;26.55;63.25;99691.19;10435413;27;96615;-86
2023/07/19 09:23:38;;;;;;;7.50;3.17;;;27.60;81.70;;;26.58;61.93;99701.53;10477659;27;96564;-87
2023/07/19 09:28:42;;;;;;;6.10;3.60;;;27.60;81.10;;;26.59;61.36;99703.16;10436291;27;96417;-87
2023/07/19 09:33:45;;;;;;;5.13;3.22;;;27.50;80.70;;;26.64;61.08;99703.94;10454661;27;96610;-87
2023/07/19 09:38:50;;;;;;;6.50;3.38;;;27.50;80.40;;;26.65;60.56;99683.75;10443337;27;96434;-87
2023/07/19 09:43:54;;;;;;;6.60;3.10;;;27.60;80.60;;;26.79;59.94;99678.44;10444180;27;97552;-86
2023/07/19 09:48:58;;;;;;;4.15;2.92;;;27.70;80.40;;;26.88;59.37;99678.63;10451197;27;96580;-87
2023/07/19 09:54:12;;;;;;;5.60;3.25;;;27.80;79.60;;;26.95;59.27;99669.00;10432163;27;96512;-88
2023/07/19 09:59:24;;;;;;;5.13;3.40;;;27.90;79.20;;;27.01;58.66;99675.22;10433529;27;98129;-87
2023/07/19 10:04:39;;;;;;;5.88;2.95;;;27.90;78.90;;;27.21;58.19;99666.84;10443047;27;96641;-87
2023/07/19 10:09:45;;;;;;;4.45;3.78;;;28.00;78.80;;;27.38;56.37;99666.38;10471851;27;97004;-86
2023/07/19 10:15:07;;;;;;;7.28;3.97;;;28.20;77.80;;;27.46;57.31;99652.06;10455085;27;96610;-87
2023/07/19 10:20:14;;;;;;;5.32;2.90;;;28.30;77.70;;;27.58;55.88;99632.53;10410993;28;96988;-86
2023/07/19 10:25:32;;;;;;;4.80;3.35;;;28.40;76.90;;;27.80;55.04;99626.53;10452766;27;96555;-87
2023/07/19 10:30:44;;;;;;;5.85;3.28;;;28.60;75.70;;;28.08;51.93;99618.47;10466425;27;97109;-87
2023/07/19 10:35:55;;;;;;;4.38;2.90;;;28.90;74.30;;;28.32;51.82;99613.72;10467562;27;96407;-87
2023/07/19 10:41:02;;;;;;;5.60;3.20;;;29.10;74.00;;;28.50;50.91;99610.13;10418159;27;98548;-86
2023/07/19 10:46:06;;;;;;;8.02;3.30;;;29.40;72.80;;;28.60;49.65;99592.72;10438489;27;98432;-87
2023/07/19 10:51:10;;;;;;;6.38;3.00;;;29.50;71.20;;;28.70;49.40;99588.97;10459376;27;96535;-86
2023/07/19 10:56:18;;;;;;;5.90;2.97;;;29.60;71.00;;;29.02;48.26;99590.84;10437812;27;96534;-86
2023/07/19 11:01:23;;;;;;;4.55;2.90;;;29.90;70.00;;;29.36;48.54;99578.63;10461676;27;96577;-86
2023/07/19 11:06:27;;;;;;;4.15;2.80;;;30.20;70.30;;;29.69;46.91;99585.59;10445686;27;96562;-86
2023/07/19 11:11:38;;;;;;;4.05;2.50;;;30.60;69.20;;;29.89;45.31;99587.03;10448184;27;96526;-86
2023/07/19 11:16:41;;;;;;;6.35;3.08;;;30.80;67.40;;;30.03;45.39;99576.81;10446684;27;97040;-86
2023/07/19 11:21:45;;;;;;;7.60;3.05;;;31.00;67.10;;;30.09;44.62;99567.34;10445716;27;96517;-86
2023/07/19 11:26:52;;;;;;;9.68;3.85;;;31.10;66.50;;;30.04;45.22;99564.72;10441005;27;96668;-86
2023/07/19 11:32:23;;;;;;;4.13;2.88;;;30.90;66.90;;;30.09;46.18;99564.59;10434699;27;96668;-86
2023/07/19 11:37:38;;;;;;;4.88;3.15;;;31.00;67.40;;;30.29;44.52;99559.75;10440860;27;96828;-86
2023/07/19 11:42:45;;;;;;;6.47;3.45;;;31.20;66.30;;;30.45;42.57;99569.19;10423469;27;96575;-87
2023/07/19 11:47:50;;;;;;;5.50;2.97;;;31.30;64.70;;;30.52;41.79;99553.09;10452701;27;96397;-87
2023/07/19 11:53:01;;;;;;;4.53;2.97;;;31.40;63.40;;;30.65;41.61;99543.97;10446998;27;96557;-86
2023/07/19 11:58:05;;;;;;;5.28;2.83;;;31.50;62.70;;;30.76;42.33;99539.00;10445035;27;96412;-87
2023/07/19 12:03:09;;;;;;;4.63;2.92;;;31.70;62.90;;;30.97;41.83;99541.19;10423427;27;97263;-87
2023/07/19 12:08:15;;;;;;;6.85;3.17;;;31.80;62.70;;;31.20;40.75;99533.63;10428508;27;96575;-87
2023/07/19 12:13:18;;;;;;;9.13;3.22;;;32.10;61.90;;;31.18;38.49;99531.19;10467126;27;96683;-86
2023/07/19 12:18:22;;;;;;;5.15;3.10;;;32.20;59.80;;;31.29;38.58;99521.56;10431016;27;96638;-87
2023/07/19 12:23:25;;;;;;;5.15;3.00;;;32.30;59.10;;;31.43;37.81;99515.94;10436169;27;98206;-86
2023/07/19 12:28:32;;;;;;;3.97;2.53;;;32.40;58.30;;;31.76;38.51;99498.94;10444389;27;96652;-86
2023/07/19 12:33:35;;;;;;;5.45;2.63;;;32.80;58.40;;;31.99;34.99;99478.38;10442753;27;98587;-87
2023/07/19 12:38:41;;;;;;;3.40;1.90;;;33.30;56.30;;;32.33;34.95;99473.88;10427697;27;96570;-86
2023/07/19 12:43:45;;;;;;;5.78;3.13;;;33.60;55.60;;;32.62;34.58;99457.44;10450438;27;96661;-87
2023/07/19 12:48:48;;;;;;;4.85;2.63;;;33.80;54.80;;;33.02;32.16;99454.28;10443252;27;97166;-88
2023/07/19 12:53:52;;;;;;;5.05;2.88;;;34.10;53.60;;;33.25;32.86;99439.03;10428566;27;96532;-86
2023/07/19 12:58:56;;;;;;;7.38;3.08;;;34.50;53.30;;;33.45;32.72;99440.19;10442154;27;96669;-86
2023/07/19 13:04:00;;;;;;;4.28;2.92;;;34.80;53.00;;;33.71;33.17;99439.94;10423803;27;98383;-86
2023/07/19 13:09:07;;;;;;;4.97;2.60;;;35.20;53.10;;;33.99;30.83;99442.06;10428610;27;97406;-88
2023/07/19 13:14:13;;;;;;;4.43;2.75;;;35.60;51.00;;;34.20;31.12;99434.53;10445247;27;96549;-87
2023/07/19 13:19:17;;;;;;;5.00;2.40;;;36.00;50.80;;;34.71;30.30;99423.13;10449621;27;97435;-87
2023/07/19 13:24:20;;;;;;;7.95;3.03;;;36.50;50.20;;;35.10;29.56;99408.56;10441728;27;96701;-87
2023/07/19 13:29:24;;;;;;;4.18;2.60;;;37.10;49.50;;;35.46;29.45;99395.78;10423817;27;97584;-87
2023/07/19 13:34:27;;;;;;;4.47;2.58;;;37.20;49.10;;;35.36;28.53;99390.72;10441733;27;96979;-87
2023/07/19 13:39:31;;;;;;;7.32;2.65;;;36.90;48.30;;;35.40;29.48;99373.09;10416536;27;97111;-86
2023/07/19 13:44:35;;;;;;;5.38;2.70;;;36.50;49.40;;;35.43;28.10;99354.25;10410016;27;96571;-87
2023/07/19 13:49:38;;;;;;;5.18;2.70;;;36.30;48.20;;;35.40;28.41;99355.72;10444553;27;96593;-88
2023/07/19 13:54:42;;;;;;;5.85;2.47;;;36.00;48.90;;;35.18;27.85;99332.25;10457818;27;96858;-86
2023/07/19 13:59:49;;;;;;;9.40;2.90;;;35.70;48.50;;;34.85;28.41;99333.31;10450032;27;96511;-86
2023/07/19 14:04:53;;;;;;;6.00;2.80;;;35.30;48.70;;;34.58;29.22;99342.34;10448357;27;96735;-87
2023/07/19 14:09:59;;;;;;;5.20;3.00;;;35.00;48.90;;;34.29;29.99;99354.44;10422014;27;96695;-86
2023/07/19 14:15:07;;;;;;;4.78;2.38;;;34.80;49.70;;;34.33;29.98;99327.78;10430351;27;96609;-87
2023/07/19 14:20:11;;;;;;;6.03;2.88;;;34.90;49.80;;;34.49;30.65;99341.69;10446892;27;96898;-86
2023/07/19 14:25:15;;;;;;;6.03;2.88;;;35.10;50.10;;;34.67;29.92;99344.94;10465486;27;96630;-86
2023/07/19 14:30:19;;;;;;;4.88;2.92;;;35.40;49.90;;;34.62;29.17;99317.63;10454776;27;97651;-87
2023/07/19 14:35:22;;;;;;;6.18;2.90;;;35.50;49.20;;;34.39;30.28;99350.41;10433760;27;96542;-87
2023/07/19 14:40:26;;;;;;;3.75;2.72;;;35.40;49.10;;;34.22;30.58;99362.47;10463249;27;97487;-87
2023/07/19 14:45:29;;;;;;;4.70;3.22;;;35.30;49.30;;;33.92;30.14;99361.91;10467166;27;96557;-88
2023/07/19 14:50:33;;;;;;;4.55;3.15;;;35.20;49.00;;;33.81;30.51;99375.31;10427679;27;96452;-88
2023/07/19 14:55:37;;;;;;;5.30;2.75;;;35.20;49.10;;;33.58;30.54;99398.91;10434482;27;96691;-87
2023/07/19 15:00:41;;;;;;;7.15;2.85;;;34.90;49.10;;;33.33;31.05;99398.00;10448529;27;96641;-88
2023/07/19 15:05:46;;;;;;;5.90;3.15;;;34.60;49.40;;;32.94;32.49;99387.19;10443171;27;96667;-87
2023/07/19 15:10:50;;;;;;;5.05;3.03;;;34.00;50.20;;;32.45;32.15;99394.31;10416854;27;98295;-87
2023/07/19 15:15:54;;;;;;;5.47;2.90;;;33.50;50.60;;;32.10;33.08;99379.91;10443025;27;96972;-87
2023/07/19 15:21:01;;;;;;;5.70;3.33;;;33.00;51.30;;;31.75;33.97;99380.00;10447561;27;96553;-87
2023/07/19 15:26:05;;;;;;;6.47;2.88;;;32.60;51.90;;;31.47;35.20;99368.63;10420428;27;96532;-87
2023/07/19 15:31:14;;;;;;;4.43;3.03;;;32.20;53.10;;;31.20;35.60;99368.97;10445874;27;96605;-87
2023/07/19 15:36:18;;;;;;;6.93;3.40;;;32.00;53.60;;;30.96;36.37;99370.28;10430422;27;96585;-87
2023/07/19 15:41:23;;;;;;;3.85;2.92;;;31.70;54.40;;;30.80;36.88;99375.44;10463180;27;96481;-87
2023/07/19 15:46:27;;;;;;;6.57;3.53;;;31.60;55.10;;;30.67;37.46;99375.56;10435322;27;98292;-86
2023/07/19 15:51:37;;;;;;;4.47;3.00;;;31.50;55.20;;;30.49;37.80;99366.50;10413193;27;97087;-87
2023/07/19 15:56:41;;;;;;;8.43;3.20;;;31.30;55.50;;;30.36;37.71;99363.59;10428978;27;96910;-86
2023/07/19 16:01:44;;;;;;;6.28;3.10;;;31.10;55.70;;;30.22;38.22;99357.41;10413140;27;96970;-87
2023/07/19 16:06:48;;;;;;;5.03;3.10;;;31.00;55.90;;;30.16;38.34;99349.66;10462125;27;96709;-87
2023/07/19 16:11:52;;;;;;;5.30;2.65;;;30.90;56.20;;;30.09;38.94;99353.63;10374820;28;96719;-86
2023/07/19 16:16:55;;;;;;;5.10;2.95;;;30.80;56.50;;;30.02;39.32;99330.59;10380811;27;98221;-86
2023/07/19 16:21:59;;;;;;;4.90;2.90;;;30.70;57.00;;;29.97;39.77;99326.03;10411244;27;96656;-87
2023/07/19 16:27:03;;;;;;;6.80;3.30;;;30.70;57.30;;;29.94;40.39;99329.44;10381509;28;96602;-87
2023/07/19 16:32:08;;;;;;;4.90;2.95;;;30.70;57.80;;;29.88;40.57;99322.50;10378486;28;96511;-86
2023/07/19 16:37:12;;;;;;;8.02;2.90;;;30.60;58.00;;;29.84;41.19;99324.25;10362087;28;96958;-86
2023/07/19 16:42:15;;;;;;;8.20;3.38;;;30.60;58.60;;;29.73;40.92;99331.13;10372543;28;96908;-86
2023/07/19 16:47:19;;;;;;;7.53;3.03;;;30.50;58.50;;;29.65;40.80;99349.13;10400312;27;97350;-86
2023/07/19 16:52:22;;;;;;;7.38;2.92;;;30.40;58.50;;;29.54;40.60;99334.91;10346611;28;97479;-86
2023/07/19 16:57:26;;;;;;;6.55;3.28;;;30.30;58.30;;;29.51;40.66;99334.72;10375470;28;96575;-86
2023/07/19 17:02:30;;;;;;;4.82;2.60;;;30.30;58.30;;;29.52;41.32;99333.59;10385247;28;96602;-86
2023/07/19 17:07:34;;;;;;;4.95;2.97;;;30.30;58.80;;;29.48;41.24;99336.13;10396677;27;97378;-87
2023/07/19 17:12:37;;;;;;;7.38;2.95;;;30.30;58.60;;;29.42;41.39;99318.22;10444657;27;96419;-86
2023/07/19 17:17:41;;;;;;;6.40;2.63;;;30.20;58.60;;;29.39;41.13;99329.81;10447860;27;96897;-86
2023/07/19 17:22:45;;;;;;;10.10;2.47;;;30.20;58.80;;;29.33;41.77;99336.53;10455577;27;96476;-86
2023/07/19 17:27:48;;;;;;;7.10;2.70;;;30.10;59.10;;;29.21;41.71;99323.44;10417933;27;96629;-86
2023/07/19 17:32:52;;;;;;;5.85;2.92;;;30.10;58.90;;;29.11;41.78;99317.41;10443443;27;98056;-86
2023/07/19 17:37:56;;;;;;;6.30;3.03;;;30.00;59.20;;;29.03;42.32;99319.78;10425102;27;96653;-86
2023/07/19 17:43:00;;;;;;;6.20;2.70;;;29.80;59.70;;;28.90;43.07;99311.56;10426954;28;96524;-86
2023/07/19 17:48:04;;;;;;;6.80;2.50;;;29.70;60.00;;;28.79;43.00;99303.63;10421848;27;96583;-86
2023/07/19 17:53:08;;;;;;;4.00;2.55;;;29.60;60.20;;;28.71;43.24;99298.09;10429699;27;96489;-87
2023/07/19 17:58:12;;;;;;;6.88;2.67;;;29.50;60.60;;;28.54;44.09;99285.09;10466233;27;97293;-87
2023/07/19 18:03:16;;;;;;;7.00;3.03;;;29.30;60.90;;;28.35;44.35;99278.97;10441080;27;98309;-86
2023/07/19 18:08:20;;;;;;;6.70;2.95;;;29.10;61.30;;;28.17;45.21;99286.16;10444566;27;98526;-87
2023/07/19 18:13:28;;;;;;;8.45;2.97;;;29.00;61.90;;;27.96;45.82;99297.53;10450909;27;97698;-87
2023/07/19 18:18:32;;;;;;;7.90;2.95;;;28.70;62.80;;;27.78;46.90;99309.38;10421954;27;98828;-86
2023/07/19 18:23:37;;;;;;;5.00;2.75;;;28.50;63.50;;;27.58;47.98;99298.78;10449311;27;96995;-86
2023/07/19 18:28:41;;;;;;;4.85;3.20;;;28.30;64.50;;;27.38;48.96;99308.19;10449540;27;96973;-86
2023/07/19 18:33:44;;;;;;;8.73;3.08;;;28.10;65.20;;;27.18;49.50;99318.34;10427307;27;97399;-86
2023/07/19 18:38:48;;;;;;;6.68;2.92;;;28.00;66.00;;;27.01;50.15;99323.50;10430884;27;98335;-88
2023/07/19 18:43:52;;;;;;;6.85;3.00;;;27.80;67.00;;;26.84;50.39;99329.47;10436252;27;97927;-86
2023/07/19 18:48:57;;;;;;;6.25;3.28;;;27.60;66.70;;;26.65;50.34;99328.69;10457186;27;96684;-86
2023/07/19 18:54:01;;;;;;;5.10;2.92;;;27.40;67.10;;;26.49;50.94;99339.00;10431382;27;96513;-86
2023/07/19 18:59:05;;;;;;;9.10;2.63;;;27.30;67.50;;;26.35;51.44;99343.53;10456015;27;96619;-85
2023/07/19 19:04:10;;;;;;;7.75;3.28;;;27.10;67.50;;;26.20;52.05;99352.69;10439362;27;97297;-86
2023/07/19 19:09:13;;;;;;;6.70;2.70;;;27.00;68.30;;;26.06;51.92;99335.44;10444523;27;96711;-86
2023/07/19 19:14:17;;;;;;;7.80;3.20;;;26.80;68.00;;;25.97;52.76;99348.91;10477069;27;97332;-86
2023/07/19 19:19:21;;;;;;;7.40;3.50;;;26.80;68.40;;;25.88;52.90;99362.31;10426330;27;96784;-86
2023/07/19 19:24:25;;;;;;;5.88;2.95;;;26.70;68.90;;;25.75;53.70;99364.91;10428133;27;98595;-86
2023/07/19 19:29:28;;;;;;;9.27;3.30;;;26.50;69.30;;;25.56;54.02;99375.69;10431319;27;98437;-86
2023/07/19 19:34:32;;;;;;;8.75;3.00;;;26.40;69.70;;;25.48;54.01;99387.16;10425758;27;98032;-86
2023/07/19 19:39:36;;;;;;;9.10;3.33;;;26.20;69.70;;;25.47;54.18;99371.94;10422144;27;96650;-86
2023/07/19 19:44:39;;;;;;;5.80;2.88;;;26.20;69.80;;;25.48;53.88;99376.28;10401667;27;96778;-86
2023/07/19 19:49:43;;;;;;;6.78;3.33;;;26.20;69.70;;;25.47;54.33;99370.03;10444477;27;96686;-86
2023/07/19 19:54:47;;;;;;;7.55;2.70;;;26.30;70.10;;;25.46;55.71;99367.59;10440702;27;96862;-85
2023/07/19 19:59:50;;;;;;;8.75;3.30;;;26.20;70.50;;;25.33;55.67;99369.91;10431527;27;96641;-86
2023/07/19 20:04:54;;;;;;;5.88;2.85;;;26.20;70.90;;;25.22;56.35;99371.06;10446039;27;98372;-86
2023/07/19 20:09:58;;;;;;;4.68;2.70;;;26.00;71.40;;;25.06;57.10;99377.72;10448343;27;97802;-87
2023/07/19 20:15:21;;;;;;;5.40;2.80;;;25.90;72.00;;;24.94;57.94;99379.94;10455450;27;96671;-86
2023/07/19 20:20:26;;;;;;;7.47;3.58;;;25.70;72.80;;;24.92;57.93;99363.13;10442126;27;96676;-86
2023/07/19 20:25:34;;;;;;;4.93;2.80;;;25.70;73.20;;;24.93;58.47;99365.53;10459777;27;96939;-86
2023/07/19 20:31:01;;;;;;;8.57;2.65;;;25.70;73.30;;;24.89;59.25;99367.22;10452391;27;96637;-86
2023/07/19 20:36:10;;;;;;;7.30;2.63;;;25.70;73.90;;;24.87;59.63;99357.72;10443112;27;96676;-86
2023/07/19 20:41:33;;;;;;;7.65;3.22;;;25.60;74.40;;;24.84;60.16;99364.53;10440447;27;96759;-86
2023/07/19 20:46:37;;;;;;;9.55;3.03;;;25.60;75.20;;;24.88;60.54;99362.84;10427947;27;98079;-86
2023/07/19 20:51:44;;;;;;;6.60;2.63;;;25.60;75.50;;;24.94;60.43;99353.56;10427489;27;96594;-86
2023/07/19 20:56:48;;;;;;;4.43;2.50;;;25.60;75.50;;;24.94;60.25;99348.13;10442043;27;96731;-87
2023/07/19 21:01:51;;;;;;;5.38;2.70;;;25.70;75.60;;;24.92;60.98;99354.97;10450053;27;96791;-87
2023/07/19 21:06:55;;;;;;;6.22;2.53;;;25.70;76.00;;;24.90;61.41;99359.88;10470116;27;96604;-86